, TX

(GMT )
Ingleside

Weather History for KTFP - February, 2013

Change the Weather History Date:

Monday, February 18, 2013

  Actual Average Record
Temperature  
Mean Temperature 72 °F -  
Max Temperature 77 °F - - ()
Min Temperature 67 °F - - ()
Cooling Degree Days 7    
Growing Degree Days 22 (Base 50)    
Moisture  
Dew Point 63 °F    
Average Humidity 78    
Maximum Humidity 90    
Minimum Humidity 63    
Precipitation  
Precipitation 0.00 in - - ()
Sea Level Pressure  
Sea Level Pressure 29.94 in    
Wind  
Wind Speed 16 mph (South)    
Max Wind Speed 26 mph    
Max Gust Speed 37 mph    
Visibility 10 miles    
Events      
Averages and records for this station are not official NWS values.
T = Trace of Precipitation, MM = Missing Value Source: NWS Daily Summary

Daily Weather History Graph

Daily Weather History Graph

Search for Another Location

Airport or City:

Trip Planner

Search our weather history database for the weather conditions in past years. The results will help you decide how hot, cold, wet, or windy it might be!

Date:

Astronomy

Feb. 18, 2013 Rise Set
Actual Time 7:03 AM CST 6:22 PM CST
Civil Twilight 6:39 AM CST 6:46 PM CST
Nautical Twilight 6:12 AM CST 7:13 PM CST
Astronomical Twilight 5:45 AM CST 7:40 PM CST
Moon 12:23 PM CST (2/18) 1:30 AM CST (2/18)
Length of Visible Light 12h 06m
Length of Day
11h 18m
First Quarter, 58% of the Moon is Illuminated
Feb 18
First Quarter
Feb 25
Full
Mar 4
Last Quarter
Mar 11
New
Mar 19
First Quarter

Hourly Weather History & Observations

Time (CST) Temp. Dew Point Humidity Pressure Visibility Wind Dir Wind Speed Gust Speed Precip Events Conditions
12:15 AM 67.1 °F 58.6 °F 74% 30.02 in 10.0 mi SSE 12.7 mph - N/A   Overcast
12:35 AM 67.1 °F 59.0 °F 75% 30.00 in 10.0 mi SSE 15.0 mph 20.7 mph N/A   Overcast
12:55 AM 67.1 °F 59.0 °F 75% 30.00 in 10.0 mi SSE 15.0 mph 23.0 mph N/A   Overcast
1:15 AM 67.1 °F 59.2 °F 76% 30.00 in 10.0 mi South 16.1 mph - N/A   Overcast
1:35 AM 67.3 °F 59.4 °F 76% 29.99 in 10.0 mi SSE 16.1 mph 23.0 mph N/A   Overcast
1:55 AM 67.5 °F 59.7 °F 76% 29.99 in 10.0 mi SSE 16.1 mph 21.9 mph N/A   Overcast
2:15 AM 67.5 °F 59.9 °F 77% 29.98 in 10.0 mi South 15.0 mph 23.0 mph N/A   Overcast
2:35 AM 67.6 °F 60.3 °F 77% 29.97 in 10.0 mi South 13.8 mph 21.9 mph N/A   Overcast
2:55 AM 67.6 °F 60.4 °F 78% 29.96 in 10.0 mi SSE 16.1 mph 21.9 mph N/A   Overcast
3:15 AM 67.6 °F 60.8 °F 79% 29.95 in 10.0 mi SSE 15.0 mph 23.0 mph N/A   Overcast
3:35 AM 67.8 °F 61.0 °F 79% 29.94 in 10.0 mi SSE 16.1 mph 21.9 mph N/A   Overcast
3:55 AM 67.6 °F 61.5 °F 81% 29.94 in 10.0 mi SSE 12.7 mph - N/A   Overcast
4:15 AM 67.8 °F 61.9 °F 81% 29.93 in 10.0 mi South 13.8 mph 21.9 mph N/A   Overcast
4:35 AM 68.0 °F 62.1 °F 81% 29.92 in 10.0 mi SSE 16.1 mph 23.0 mph N/A   Overcast
4:55 AM 68.0 °F 62.4 °F 82% 29.92 in 10.0 mi SSE 17.3 mph 24.2 mph N/A   Overcast
5:15 AM 68.0 °F 62.6 °F 83% 29.92 in 10.0 mi SSE 15.0 mph 23.0 mph N/A   Overcast
5:35 AM 68.2 °F 62.6 °F 82% 29.92 in 10.0 mi SSE 17.3 mph 21.9 mph N/A   Overcast
5:55 AM 68.2 °F 62.6 °F 82% 29.92 in 10.0 mi SSE 18.4 mph 24.2 mph N/A   Overcast
6:15 AM 68.4 °F 62.8 °F 82% 29.92 in 10.0 mi SSE 13.8 mph 20.7 mph N/A   Overcast
6:35 AM 68.4 °F 63.0 °F 83% 29.92 in 10.0 mi SSE 16.1 mph - N/A   Overcast
6:55 AM 68.4 °F 63.1 °F 83% 29.92 in 10.0 mi SSE 16.1 mph 19.6 mph N/A   Overcast
7:15 AM 68.5 °F 63.5 °F 84% 29.93 in 10.0 mi SSE 15.0 mph 19.6 mph N/A   Overcast
7:35 AM 68.5 °F 63.5 °F 84% 29.93 in 10.0 mi SSE 12.7 mph 18.4 mph N/A   Overcast
7:55 AM 68.7 °F 63.5 °F 83% 29.93 in 10.0 mi SSE 12.7 mph 19.6 mph N/A   Overcast
8:15 AM 68.9 °F 63.7 °F 83% 29.93 in 10.0 mi SSE 15.0 mph 21.9 mph N/A   Overcast
8:35 AM 68.9 °F 63.9 °F 84% 29.93 in 10.0 mi SSE 15.0 mph 18.4 mph N/A   Overcast
8:55 AM 69.6 °F 64.0 °F 82% 29.94 in 10.0 mi SSE 18.4 mph 26.5 mph N/A   Overcast
9:15 AM 70.3 °F 64.0 °F 80% 29.94 in 10.0 mi South 16.1 mph 26.5 mph N/A   Overcast
9:35 AM 70.7 °F 64.0 °F 79% 29.94 in 10.0 mi South 20.7 mph 26.5 mph N/A   Overcast
9:55 AM 71.1 °F 64.2 °F 79% 29.94 in 10.0 mi South 20.7 mph 26.5 mph N/A   Overcast
10:15 AM 71.2 °F 64.4 °F 79% 29.94 in 10.0 mi South 20.7 mph 26.5 mph N/A   Overcast
10:35 AM 72.0 °F 64.0 °F 76% 29.95 in 10.0 mi South 21.9 mph 27.6 mph N/A   Overcast
10:55 AM 72.1 °F 64.0 °F 76% 29.94 in 10.0 mi South 17.3 mph 26.5 mph N/A   Overcast
11:15 AM 72.9 °F 64.0 °F 74% 29.94 in 10.0 mi South 21.9 mph 28.8 mph N/A   Overcast
11:35 AM 73.2 °F 64.2 °F 73% 29.94 in 10.0 mi South 18.4 mph 28.8 mph N/A   Overcast
11:55 AM 72.0 °F 64.0 °F 76% 29.95 in 10.0 mi South 19.6 mph 25.3 mph N/A   Overcast
12:15 PM 71.8 °F 64.2 °F 77% 29.95 in 10.0 mi South 12.7 mph 20.7 mph N/A   Overcast
12:35 PM 72.9 °F 64.6 °F 75% 29.93 in 10.0 mi South 16.1 mph 27.6 mph N/A   Overcast
12:55 PM 74.1 °F 64.6 °F 72% 29.94 in 10.0 mi South 15.0 mph 24.2 mph N/A   Overcast
1:15 PM 73.8 °F 64.6 °F 73% 29.93 in 10.0 mi South 16.1 mph 25.3 mph N/A   Overcast
1:35 PM 74.1 °F 64.8 °F 72% 29.90 in 10.0 mi South 26.5 mph 32.2 mph N/A   Mostly Cloudy
1:55 PM 76.1 °F 64.9 °F 68% 29.89 in 10.0 mi South 23.0 mph 31.1 mph N/A   Clear
2:15 PM 77.2 °F 64.8 °F 65% 29.89 in 10.0 mi South 23.0 mph 28.8 mph N/A   Scattered Clouds
2:35 PM 77.0 °F 64.4 °F 65% 29.88 in 10.0 mi South 25.3 mph 32.2 mph N/A   Scattered Clouds
2:55 PM 76.8 °F 64.2 °F 65% 29.87 in 10.0 mi South 26.5 mph 33.4 mph N/A   Clear
3:15 PM 76.8 °F 64.0 °F 65% 29.87 in 10.0 mi South 25.3 mph 33.4 mph N/A   Clear
3:35 PM 76.5 °F 63.5 °F 64% 29.86 in 10.0 mi South 23.0 mph 35.7 mph N/A   Clear
3:55 PM 76.1 °F 62.8 °F 63% 29.86 in 10.0 mi South 25.3 mph 36.8 mph N/A   Clear
4:15 PM 75.9 °F 63.0 °F 64% 29.87 in 10.0 mi South 25.3 mph 31.1 mph N/A   Clear
4:35 PM 75.4 °F 62.8 °F 65% 29.86 in 10.0 mi South 21.9 mph 31.1 mph N/A   Clear
5:15 PM 74.3 °F 62.8 °F 67% 29.87 in 10.0 mi South 21.9 mph 28.8 mph N/A   Clear
5:35 PM 73.2 °F 62.8 °F 70% 29.87 in 10.0 mi South 19.6 mph 26.5 mph N/A   Clear
5:55 PM 72.1 °F 63.0 °F 73% 29.88 in 10.0 mi South 16.1 mph 24.2 mph N/A   Clear
6:15 PM 70.9 °F 63.0 °F 76% 29.89 in 10.0 mi South 15.0 mph 23.0 mph N/A   Clear
6:35 PM 70.0 °F 63.0 °F 78% 29.89 in 10.0 mi South 16.1 mph 21.9 mph N/A   Clear
6:55 PM 69.8 °F 63.5 °F 80% 29.90 in 10.0 mi South 13.8 mph 21.9 mph N/A   Clear
7:15 PM 69.8 °F 63.7 °F 81% 29.91 in 10.0 mi South 12.7 mph 21.9 mph N/A   Clear
7:35 PM 69.4 °F 63.9 °F 82% 29.92 in 10.0 mi South 12.7 mph 18.4 mph N/A   Clear
7:55 PM 69.1 °F 64.0 °F 84% 29.93 in 10.0 mi South 15.0 mph 18.4 mph N/A   Clear
8:15 PM 69.1 °F 64.4 °F 85% 29.94 in 10.0 mi South 13.8 mph 18.4 mph N/A   Clear
8:35 PM 68.9 °F 64.4 °F 86% 29.95 in 10.0 mi South 10.4 mph 18.4 mph N/A   Clear
8:55 PM 68.4 °F 64.4 °F 87% 29.96 in 10.0 mi South 9.2 mph - N/A   Clear
9:15 PM 68.4 °F 64.4 °F 87% 29.97 in 10.0 mi South 11.5 mph 16.1 mph N/A   Clear
9:35 PM 68.2 °F 64.4 °F 88% 29.98 in 10.0 mi South 11.5 mph 18.4 mph N/A   Clear
9:55 PM 68.0 °F 64.2 °F 88% 29.98 in 10.0 mi South 8.1 mph - N/A   Clear
10:15 PM 67.8 °F 64.0 °F 88% 29.99 in 10.0 mi South 10.4 mph - N/A   Clear
10:35 PM 67.8 °F 64.2 °F 88% 29.99 in 10.0 mi South 9.2 mph - N/A   Clear
10:55 PM 67.5 °F 64.0 °F 89% 30.00 in 10.0 mi South 11.5 mph 16.1 mph N/A   Clear
11:15 PM 67.1 °F 64.0 °F 90% 30.00 in 10.0 mi South 10.4 mph - N/A   Clear
11:35 PM 67.1 °F 64.0 °F 90% 30.00 in 10.0 mi South 10.4 mph - N/A   Clear
11:55 PM 67.1 °F 64.0 °F 90% 30.00 in 10.0 mi South 8.1 mph - N/A   Clear